sensor_id;sensor_type;location;lat;lon;timestamp;P1;durP1;ratioP1;P2;durP2;ratioP2
42514;SDS011;28144;49.920;18.730;2023-03-12T00:01:11;23.10;;;9.73;;
42514;SDS011;28144;49.920;18.730;2023-03-12T00:03:43;17.93;;;9.77;;
42514;SDS011;28144;49.920;18.730;2023-03-12T00:06:09;22.97;;;9.67;;
42514;SDS011;28144;49.920;18.730;2023-03-12T00:11:05;24.00;;;11.77;;
42514;SDS011;28144;49.920;18.730;2023-03-12T00:13:36;25.07;;;10.37;;
42514;SDS011;28144;49.920;18.730;2023-03-12T00:16:12;19.63;;;9.85;;
42514;SDS011;28144;49.920;18.730;2023-03-12T00:18:40;21.60;;;10.93;;
42514;SDS011;28144;49.920;18.730;2023-03-12T00:21:07;21.87;;;10.40;;
42514;SDS011;28144;49.920;18.730;2023-03-12T00:23:34;18.90;;;9.97;;
42514;SDS011;28144;49.920;18.730;2023-03-12T00:26:00;20.10;;;10.27;;
42514;SDS011;28144;49.920;18.730;2023-03-12T00:28:33;22.10;;;10.67;;
42514;SDS011;28144;49.920;18.730;2023-03-12T00:31:00;22.33;;;10.07;;
42514;SDS011;28144;49.920;18.730;2023-03-12T00:33:30;19.53;;;9.80;;
42514;SDS011;28144;49.920;18.730;2023-03-12T00:35:58;24.20;;;11.27;;
42514;SDS011;28144;49.920;18.730;2023-03-12T00:38:26;18.97;;;9.93;;
42514;SDS011;28144;49.920;18.730;2023-03-12T00:40:52;23.20;;;11.88;;
42514;SDS011;28144;49.920;18.730;2023-03-12T00:43:18;19.85;;;10.57;;
42514;SDS011;28144;49.920;18.730;2023-03-12T00:45:44;17.83;;;9.47;;
42514;SDS011;28144;49.920;18.730;2023-03-12T00:48:14;20.50;;;10.37;;
42514;SDS011;28144;49.920;18.730;2023-03-12T00:50:40;19.00;;;9.77;;
42514;SDS011;28144;49.920;18.730;2023-03-12T00:53:08;19.17;;;10.33;;
42514;SDS011;28144;49.920;18.730;2023-03-12T00:55:34;18.73;;;9.75;;
42514;SDS011;28144;49.920;18.730;2023-03-12T00:58:02;18.27;;;10.23;;
42514;SDS011;28144;49.920;18.730;2023-03-12T01:00:28;24.75;;;10.00;;
42514;SDS011;28144;49.920;18.730;2023-03-12T01:02:54;19.40;;;9.25;;
42514;SDS011;28144;49.920;18.730;2023-03-12T01:05:24;16.65;;;8.93;;
42514;SDS011;28144;49.920;18.730;2023-03-12T01:07:51;18.93;;;8.70;;
42514;SDS011;28144;49.920;18.730;2023-03-12T01:10:25;16.50;;;8.20;;
42514;SDS011;28144;49.920;18.730;2023-03-12T01:12:54;15.97;;;9.40;;
42514;SDS011;28144;49.920;18.730;2023-03-12T01:15:20;18.23;;;8.77;;
42514;SDS011;28144;49.920;18.730;2023-03-12T01:17:46;19.05;;;9.32;;
42514;SDS011;28144;49.920;18.730;2023-03-12T01:20:13;21.58;;;9.25;;
42514;SDS011;28144;49.920;18.730;2023-03-12T01:22:44;19.13;;;8.40;;
42514;SDS011;28144;49.920;18.730;2023-03-12T01:25:10;19.40;;;9.53;;
42514;SDS011;28144;49.920;18.730;2023-03-12T01:30:03;20.55;;;9.43;;
42514;SDS011;28144;49.920;18.730;2023-03-12T01:32:30;15.00;;;8.13;;
42514;SDS011;28144;49.920;18.730;2023-03-12T01:34:59;22.93;;;9.17;;
42514;SDS011;28144;49.920;18.730;2023-03-12T01:37:26;20.85;;;9.45;;
42514;SDS011;28144;49.920;18.730;2023-03-12T01:39:52;25.77;;;10.73;;
42514;SDS011;28144;49.920;18.730;2023-03-12T01:42:19;22.33;;;10.02;;
42514;SDS011;28144;49.920;18.730;2023-03-12T01:44:49;20.52;;;9.07;;
42514;SDS011;28144;49.920;18.730;2023-03-12T01:47:29;22.53;;;8.80;;
42514;SDS011;28144;49.920;18.730;2023-03-12T01:49:58;20.87;;;9.57;;
42514;SDS011;28144;49.920;18.730;2023-03-12T01:54:57;19.73;;;8.17;;
42514;SDS011;28144;49.920;18.730;2023-03-12T01:57:35;16.10;;;8.30;;
42514;SDS011;28144;49.920;18.730;2023-03-12T02:00:07;19.40;;;10.47;;
42514;SDS011;28144;49.920;18.730;2023-03-12T02:02:38;19.57;;;9.87;;
42514;SDS011;28144;49.920;18.730;2023-03-12T02:05:06;17.98;;;9.45;;
42514;SDS011;28144;49.920;18.730;2023-03-12T06:31:49;15.07;;;8.27;;
42514;SDS011;28144;49.920;18.730;2023-03-12T06:34:16;14.70;;;7.60;;
42514;SDS011;28144;49.920;18.730;2023-03-12T06:36:43;14.20;;;7.00;;
42514;SDS011;28144;49.920;18.730;2023-03-12T06:39:09;15.02;;;7.70;;
42514;SDS011;28144;49.920;18.730;2023-03-12T06:41:35;19.13;;;9.47;;
42514;SDS011;28144;49.920;18.730;2023-03-12T06:44:02;14.20;;;7.45;;
42514;SDS011;28144;49.920;18.730;2023-03-12T06:46:33;15.20;;;6.77;;
42514;SDS011;28144;49.920;18.730;2023-03-12T06:49:06;21.40;;;8.50;;
42514;SDS011;28144;49.920;18.730;2023-03-12T06:51:36;17.07;;;7.77;;
42514;SDS011;28144;49.920;18.730;2023-03-12T06:54:02;14.98;;;7.45;;
42514;SDS011;28144;49.920;18.730;2023-03-12T06:56:28;13.47;;;7.07;;
42514;SDS011;28144;49.920;18.730;2023-03-12T07:01:26;13.17;;;6.70;;
42514;SDS011;28144;49.920;18.730;2023-03-12T07:04:17;17.90;;;9.50;;
42514;SDS011;28144;49.920;18.730;2023-03-12T07:06:47;13.37;;;6.87;;
42514;SDS011;28144;49.920;18.730;2023-03-12T07:09:25;14.93;;;7.03;;
42514;SDS011;28144;49.920;18.730;2023-03-12T07:11:56;10.33;;;5.83;;
42514;SDS011;28144;49.920;18.730;2023-03-12T07:14:26;15.77;;;7.60;;
42514;SDS011;28144;49.920;18.730;2023-03-12T07:17:13;11.40;;;6.93;;
42514;SDS011;28144;49.920;18.730;2023-03-12T07:19:40;11.87;;;6.37;;
42514;SDS011;28144;49.920;18.730;2023-03-12T07:22:06;8.30;;;6.00;;
42514;SDS011;28144;49.920;18.730;2023-03-12T07:24:33;12.73;;;7.87;;
42514;SDS011;28144;49.920;18.730;2023-03-12T07:26:59;14.03;;;7.43;;
42514;SDS011;28144;49.920;18.730;2023-03-12T07:29:25;12.00;;;6.45;;
42514;SDS011;28144;49.920;18.730;2023-03-12T07:35:34;14.47;;;7.17;;
42514;SDS011;28144;49.920;18.730;2023-03-12T07:38:01;16.98;;;7.70;;
42514;SDS011;28144;49.920;18.730;2023-03-12T07:40:27;10.85;;;7.10;;
42514;SDS011;28144;49.920;18.730;2023-03-12T07:42:53;15.73;;;6.63;;
42514;SDS011;28144;49.920;18.730;2023-03-12T07:45:19;10.87;;;6.47;;
42514;SDS011;28144;49.920;18.730;2023-03-12T07:47:45;12.77;;;6.72;;
42514;SDS011;28144;49.920;18.730;2023-03-12T07:50:11;14.50;;;7.10;;
42514;SDS011;28144;49.920;18.730;2023-03-12T07:52:38;10.85;;;6.28;;
42514;SDS011;28144;49.920;18.730;2023-03-12T07:55:03;12.00;;;6.70;;
42514;SDS011;28144;49.920;18.730;2023-03-12T07:57:30;13.05;;;7.13;;
42514;SDS011;28144;49.920;18.730;2023-03-12T07:59:56;13.80;;;8.10;;
42514;SDS011;28144;49.920;18.730;2023-03-12T08:02:22;11.25;;;6.55;;
42514;SDS011;28144;49.920;18.730;2023-03-12T08:04:48;10.67;;;6.33;;
42514;SDS011;28144;49.920;18.730;2023-03-12T08:07:14;13.00;;;7.50;;
42514;SDS011;28144;49.920;18.730;2023-03-12T08:09:40;16.67;;;8.93;;
42514;SDS011;28144;49.920;18.730;2023-03-12T08:12:06;15.75;;;6.97;;
42514;SDS011;28144;49.920;18.730;2023-03-12T08:14:33;11.40;;;6.20;;
42514;SDS011;28144;49.920;18.730;2023-03-12T08:16:59;9.75;;;5.95;;
42514;SDS011;28144;49.920;18.730;2023-03-12T08:19:26;11.20;;;6.07;;
42514;SDS011;28144;49.920;18.730;2023-03-12T08:21:52;10.60;;;5.97;;
42514;SDS011;28144;49.920;18.730;2023-03-12T08:24:19;12.77;;;7.07;;
42514;SDS011;28144;49.920;18.730;2023-03-12T08:26:46;11.03;;;6.33;;
42514;SDS011;28144;49.920;18.730;2023-03-12T08:29:12;10.50;;;6.03;;
42514;SDS011;28144;49.920;18.730;2023-03-12T08:31:38;9.07;;;5.15;;
42514;SDS011;28144;49.920;18.730;2023-03-12T08:34:04;9.37;;;5.53;;
42514;SDS011;28144;49.920;18.730;2023-03-12T08:36:30;13.13;;;6.40;;
42514;SDS011;28144;49.920;18.730;2023-03-12T08:38:56;11.20;;;6.43;;
42514;SDS011;28144;49.920;18.730;2023-03-12T08:41:22;14.57;;;6.73;;
42514;SDS011;28144;49.920;18.730;2023-03-12T08:43:48;11.70;;;6.70;;
42514;SDS011;28144;49.920;18.730;2023-03-12T08:46:14;7.90;;;5.20;;
42514;SDS011;28144;49.920;18.730;2023-03-12T08:48:40;10.50;;;5.50;;
42514;SDS011;28144;49.920;18.730;2023-03-12T08:51:06;9.60;;;5.75;;
42514;SDS011;28144;49.920;18.730;2023-03-12T08:53:33;11.40;;;6.10;;
42514;SDS011;28144;49.920;18.730;2023-03-12T08:56:00;9.23;;;5.70;;
42514;SDS011;28144;49.920;18.730;2023-03-12T08:58:26;13.70;;;6.32;;
42514;SDS011;28144;49.920;18.730;2023-03-12T09:00:53;10.88;;;5.70;;
42514;SDS011;28144;49.920;18.730;2023-03-12T09:03:20;9.85;;;5.30;;
42514;SDS011;28144;49.920;18.730;2023-03-12T09:08:13;9.05;;;5.35;;
42514;SDS011;28144;49.920;18.730;2023-03-12T09:10:39;13.15;;;5.38;;
42514;SDS011;28144;49.920;18.730;2023-03-12T09:13:05;10.90;;;6.03;;
42514;SDS011;28144;49.920;18.730;2023-03-12T09:15:31;12.07;;;5.45;;
42514;SDS011;28144;49.920;18.730;2023-03-12T09:17:57;12.93;;;5.78;;
42514;SDS011;28144;49.920;18.730;2023-03-12T09:20:24;11.67;;;5.73;;
42514;SDS011;28144;49.920;18.730;2023-03-12T09:22:49;9.97;;;5.93;;
42514;SDS011;28144;49.920;18.730;2023-03-12T09:25:15;9.75;;;5.30;;
42514;SDS011;28144;49.920;18.730;2023-03-12T09:27:43;8.63;;;5.43;;
42514;SDS011;28144;49.920;18.730;2023-03-12T09:30:12;8.27;;;5.37;;
42514;SDS011;28144;49.920;18.730;2023-03-12T09:32:41;18.63;;;6.40;;
42514;SDS011;28144;49.920;18.730;2023-03-12T09:35:09;9.20;;;5.40;;
42514;SDS011;28144;49.920;18.730;2023-03-12T09:37:35;12.07;;;5.53;;
42514;SDS011;28144;49.920;18.730;2023-03-12T09:40:01;13.87;;;6.00;;
42514;SDS011;28144;49.920;18.730;2023-03-12T09:42:40;9.17;;;5.33;;
42514;SDS011;28144;49.920;18.730;2023-03-12T09:45:06;13.80;;;5.15;;
42514;SDS011;28144;49.920;18.730;2023-03-12T09:47:42;11.07;;;5.20;;
42514;SDS011;28144;49.920;18.730;2023-03-12T09:50:20;10.67;;;4.80;;
42514;SDS011;28144;49.920;18.730;2023-03-12T09:52:49;9.57;;;4.47;;
42514;SDS011;28144;49.920;18.730;2023-03-12T09:55:20;8.83;;;4.83;;
42514;SDS011;28144;49.920;18.730;2023-03-12T09:57:47;7.07;;;4.07;;
42514;SDS011;28144;49.920;18.730;2023-03-12T10:00:16;8.00;;;4.33;;
42514;SDS011;28144;49.920;18.730;2023-03-12T10:05:34;11.57;;;4.30;;
42514;SDS011;28144;49.920;18.730;2023-03-12T10:11:00;10.60;;;4.50;;
42514;SDS011;28144;49.920;18.730;2023-03-12T10:27:24;8.10;;;4.70;;
42514;SDS011;28144;49.920;18.730;2023-03-12T10:29:53;8.33;;;4.20;;
42514;SDS011;28144;49.920;18.730;2023-03-12T10:32:21;7.45;;;4.97;;
42514;SDS011;28144;49.920;18.730;2023-03-12T10:34:51;9.77;;;4.00;;
42514;SDS011;28144;49.920;18.730;2023-03-12T10:39:56;6.65;;;3.38;;
42514;SDS011;28144;49.920;18.730;2023-03-12T10:42:25;6.63;;;4.10;;
42514;SDS011;28144;49.920;18.730;2023-03-12T10:44:59;16.23;;;4.17;;
42514;SDS011;28144;49.920;18.730;2023-03-12T11:35:21;7.77;;;3.57;;
42514;SDS011;28144;49.920;18.730;2023-03-12T12:14:29;8.00;;;3.13;;
42514;SDS011;28144;49.920;18.730;2023-03-12T12:28:51;5.23;;;2.83;;
42514;SDS011;28144;49.920;18.730;2023-03-12T12:36:40;9.87;;;4.50;;
42514;SDS011;28144;49.920;18.730;2023-03-12T12:39:12;5.13;;;2.80;;
42514;SDS011;28144;49.920;18.730;2023-03-12T12:42:01;4.28;;;2.75;;
42514;SDS011;28144;49.920;18.730;2023-03-12T12:52:21;4.33;;;2.60;;
42514;SDS011;28144;49.920;18.730;2023-03-12T12:57:59;5.40;;;2.83;;
42514;SDS011;28144;49.920;18.730;2023-03-12T13:00:54;7.87;;;3.63;;
42514;SDS011;28144;49.920;18.730;2023-03-12T13:03:22;6.30;;;3.43;;
42514;SDS011;28144;49.920;18.730;2023-03-12T13:05:57;5.60;;;3.10;;
42514;SDS011;28144;49.920;18.730;2023-03-12T13:13:42;5.90;;;3.27;;
42514;SDS011;28144;49.920;18.730;2023-03-12T13:16:35;6.10;;;3.27;;
42514;SDS011;28144;49.920;18.730;2023-03-12T13:45:33;6.30;;;3.73;;
42514;SDS011;28144;49.920;18.730;2023-03-12T13:48:19;5.53;;;2.90;;
42514;SDS011;28144;49.920;18.730;2023-03-12T13:50:50;6.55;;;3.65;;
42514;SDS011;28144;49.920;18.730;2023-03-12T13:53:24;6.03;;;2.97;;
42514;SDS011;28144;49.920;18.730;2023-03-12T13:56:08;6.83;;;4.23;;
42514;SDS011;28144;49.920;18.730;2023-03-12T14:01:39;6.20;;;3.20;;
42514;SDS011;28144;49.920;18.730;2023-03-12T14:04:07;7.23;;;3.53;;
42514;SDS011;28144;49.920;18.730;2023-03-12T14:15:43;6.70;;;3.47;;
42514;SDS011;28144;49.920;18.730;2023-03-12T14:18:21;4.80;;;3.43;;
42514;SDS011;28144;49.920;18.730;2023-03-12T14:20:53;6.93;;;3.13;;
42514;SDS011;28144;49.920;18.730;2023-03-12T14:23:21;6.83;;;3.27;;
42514;SDS011;28144;49.920;18.730;2023-03-12T14:25:52;4.77;;;3.30;;
42514;SDS011;28144;49.920;18.730;2023-03-12T14:28:22;6.70;;;3.70;;
42514;SDS011;28144;49.920;18.730;2023-03-12T14:37:28;7.27;;;3.13;;
42514;SDS011;28144;49.920;18.730;2023-03-12T14:40:00;8.35;;;3.60;;
42514;SDS011;28144;49.920;18.730;2023-03-12T14:42:30;6.93;;;3.23;;
42514;SDS011;28144;49.920;18.730;2023-03-12T14:45:01;7.80;;;3.57;;
42514;SDS011;28144;49.920;18.730;2023-03-12T14:47:40;7.53;;;3.53;;
42514;SDS011;28144;49.920;18.730;2023-03-12T14:50:24;6.53;;;3.13;;
42514;SDS011;28144;49.920;18.730;2023-03-12T14:52:53;4.50;;;3.03;;
42514;SDS011;28144;49.920;18.730;2023-03-12T14:55:21;6.80;;;3.73;;
42514;SDS011;28144;49.920;18.730;2023-03-12T14:57:48;9.93;;;4.80;;
42514;SDS011;28144;49.920;18.730;2023-03-12T15:00:28;8.07;;;4.40;;
42514;SDS011;28144;49.920;18.730;2023-03-12T15:02:54;5.40;;;3.63;;
42514;SDS011;28144;49.920;18.730;2023-03-12T15:05:22;12.60;;;4.67;;
42514;SDS011;28144;49.920;18.730;2023-03-12T15:10:22;8.17;;;3.93;;
42514;SDS011;28144;49.920;18.730;2023-03-12T15:12:50;9.87;;;3.63;;
42514;SDS011;28144;49.920;18.730;2023-03-12T15:18:01;6.03;;;3.37;;
42514;SDS011;28144;49.920;18.730;2023-03-12T15:20:29;7.00;;;3.40;;
42514;SDS011;28144;49.920;18.730;2023-03-12T15:22:56;8.50;;;3.78;;
42514;SDS011;28144;49.920;18.730;2023-03-12T15:25:28;7.50;;;3.75;;
42514;SDS011;28144;49.920;18.730;2023-03-12T15:28:06;8.00;;;3.97;;
42514;SDS011;28144;49.920;18.730;2023-03-12T15:30:33;7.37;;;4.30;;
42514;SDS011;28144;49.920;18.730;2023-03-12T15:35:29;12.10;;;6.13;;
42514;SDS011;28144;49.920;18.730;2023-03-12T15:37:55;9.33;;;3.83;;
42514;SDS011;28144;49.920;18.730;2023-03-12T15:40:23;6.20;;;3.50;;
42514;SDS011;28144;49.920;18.730;2023-03-12T15:42:50;4.90;;;3.30;;
42514;SDS011;28144;49.920;18.730;2023-03-12T15:45:29;8.43;;;4.03;;
42514;SDS011;28144;49.920;18.730;2023-03-12T15:47:57;8.60;;;3.80;;
42514;SDS011;28144;49.920;18.730;2023-03-12T15:50:33;7.97;;;3.60;;
42514;SDS011;28144;49.920;18.730;2023-03-12T15:53:06;6.13;;;3.37;;
42514;SDS011;28144;49.920;18.730;2023-03-12T15:56:38;5.73;;;3.30;;
42514;SDS011;28144;49.920;18.730;2023-03-12T15:58:41;7.87;;;3.60;;
42514;SDS011;28144;49.920;18.730;2023-03-12T16:01:11;8.45;;;3.80;;
42514;SDS011;28144;49.920;18.730;2023-03-12T16:03:40;10.87;;;4.63;;
42514;SDS011;28144;49.920;18.730;2023-03-12T16:06:14;7.33;;;4.23;;
42514;SDS011;28144;49.920;18.730;2023-03-12T16:08:50;7.80;;;4.47;;
42514;SDS011;28144;49.920;18.730;2023-03-12T16:11:19;7.90;;;3.50;;
42514;SDS011;28144;49.920;18.730;2023-03-12T16:13:47;6.27;;;3.70;;
42514;SDS011;28144;49.920;18.730;2023-03-12T16:16:17;9.87;;;4.20;;
42514;SDS011;28144;49.920;18.730;2023-03-12T16:18:43;7.05;;;3.67;;
42514;SDS011;28144;49.920;18.730;2023-03-12T16:24:03;8.27;;;3.50;;
42514;SDS011;28144;49.920;18.730;2023-03-12T16:27:52;8.07;;;3.90;;
42514;SDS011;28144;49.920;18.730;2023-03-12T16:30:26;8.67;;;4.23;;
42514;SDS011;28144;49.920;18.730;2023-03-12T16:32:56;7.03;;;3.50;;
42514;SDS011;28144;49.920;18.730;2023-03-12T16:35:23;8.40;;;4.30;;
42514;SDS011;28144;49.920;18.730;2023-03-12T16:41:31;9.10;;;4.03;;
42514;SDS011;28144;49.920;18.730;2023-03-12T16:43:57;11.23;;;4.70;;
42514;SDS011;28144;49.920;18.730;2023-03-12T16:48:51;6.47;;;3.38;;
42514;SDS011;28144;49.920;18.730;2023-03-12T16:51:18;5.75;;;3.00;;
42514;SDS011;28144;49.920;18.730;2023-03-12T16:53:44;10.23;;;3.63;;
42514;SDS011;28144;49.920;18.730;2023-03-12T16:56:18;9.33;;;5.00;;
42514;SDS011;28144;49.920;18.730;2023-03-12T16:58:46;11.13;;;3.95;;
42514;SDS011;28144;49.920;18.730;2023-03-12T17:01:17;11.10;;;5.07;;
42514;SDS011;28144;49.920;18.730;2023-03-12T17:03:45;7.47;;;2.90;;
42514;SDS011;28144;49.920;18.730;2023-03-12T17:06:19;8.57;;;3.80;;
42514;SDS011;28144;49.920;18.730;2023-03-12T17:08:52;8.57;;;4.03;;
42514;SDS011;28144;49.920;18.730;2023-03-12T17:11:19;8.77;;;3.58;;
42514;SDS011;28144;49.920;18.730;2023-03-12T17:13:58;9.70;;;4.50;;
42514;SDS011;28144;49.920;18.730;2023-03-12T17:16:26;9.43;;;3.83;;
42514;SDS011;28144;49.920;18.730;2023-03-12T17:21:19;9.73;;;5.13;;
42514;SDS011;28144;49.920;18.730;2023-03-12T17:23:47;11.73;;;5.67;;
42514;SDS011;28144;49.920;18.730;2023-03-12T17:26:15;11.43;;;5.50;;
42514;SDS011;28144;49.920;18.730;2023-03-12T17:28:42;10.30;;;4.87;;
42514;SDS011;28144;49.920;18.730;2023-03-12T17:31:09;13.65;;;6.30;;
42514;SDS011;28144;49.920;18.730;2023-03-12T17:45:27;52.63;;;22.93;;
42514;SDS011;28144;49.920;18.730;2023-03-12T17:48:37;39.15;;;19.02;;
42514;SDS011;28144;49.920;18.730;2023-03-12T17:55:30;37.47;;;13.47;;
42514;SDS011;28144;49.920;18.730;2023-03-12T18:01:24;30.63;;;11.00;;
42514;SDS011;28144;49.920;18.730;2023-03-12T18:03:50;44.85;;;15.40;;
42514;SDS011;28144;49.920;18.730;2023-03-12T18:06:17;47.10;;;15.57;;
42514;SDS011;28144;49.920;18.730;2023-03-12T18:08:43;56.30;;;22.50;;
42514;SDS011;28144;49.920;18.730;2023-03-12T19:17:49;21.33;;;7.67;;
42514;SDS011;28144;49.920;18.730;2023-03-12T19:41:29;19.73;;;6.87;;
42514;SDS011;28144;49.920;18.730;2023-03-12T20:11:03;24.80;;;8.00;;
42514;SDS011;28144;49.920;18.730;2023-03-12T20:14:12;22.77;;;8.03;;
42514;SDS011;28144;49.920;18.730;2023-03-12T20:16:38;18.63;;;7.67;;
42514;SDS011;28144;49.920;18.730;2023-03-12T20:19:04;18.65;;;7.95;;
42514;SDS011;28144;49.920;18.730;2023-03-12T20:21:32;20.60;;;8.03;;
42514;SDS011;28144;49.920;18.730;2023-03-12T20:23:59;24.30;;;7.45;;
42514;SDS011;28144;49.920;18.730;2023-03-12T20:26:26;15.83;;;7.53;;
42514;SDS011;28144;49.920;18.730;2023-03-12T20:28:59;18.13;;;7.17;;
42514;SDS011;28144;49.920;18.730;2023-03-12T20:31:26;19.40;;;6.93;;
42514;SDS011;28144;49.920;18.730;2023-03-12T20:33:53;18.67;;;5.97;;
42514;SDS011;28144;49.920;18.730;2023-03-12T20:36:20;19.08;;;6.60;;
42514;SDS011;28144;49.920;18.730;2023-03-12T20:38:49;16.27;;;6.27;;
42514;SDS011;28144;49.920;18.730;2023-03-12T20:41:15;12.50;;;5.43;;
42514;SDS011;28144;49.920;18.730;2023-03-12T20:43:42;23.10;;;7.83;;
42514;SDS011;28144;49.920;18.730;2023-03-12T20:46:09;16.30;;;6.38;;
42514;SDS011;28144;49.920;18.730;2023-03-12T20:48:36;15.97;;;5.90;;
42514;SDS011;28144;49.920;18.730;2023-03-12T20:51:03;10.20;;;4.75;;
42514;SDS011;28144;49.920;18.730;2023-03-12T20:53:29;10.80;;;4.57;;
42514;SDS011;28144;49.920;18.730;2023-03-12T20:55:55;10.80;;;4.37;;
42514;SDS011;28144;49.920;18.730;2023-03-12T20:58:23;10.40;;;4.03;;
42514;SDS011;28144;49.920;18.730;2023-03-12T21:00:52;12.30;;;4.37;;
42514;SDS011;28144;49.920;18.730;2023-03-12T21:03:19;11.32;;;4.30;;
42514;SDS011;28144;49.920;18.730;2023-03-12T21:05:57;9.37;;;4.13;;
42514;SDS011;28144;49.920;18.730;2023-03-12T21:08:25;10.17;;;3.70;;
42514;SDS011;28144;49.920;18.730;2023-03-12T21:10:55;10.20;;;4.17;;
42514;SDS011;28144;49.920;18.730;2023-03-12T21:13:22;9.73;;;3.65;;
42514;SDS011;28144;49.920;18.730;2023-03-12T21:15:50;7.37;;;3.20;;
42514;SDS011;28144;49.920;18.730;2023-03-12T21:18:18;13.10;;;3.80;;
42514;SDS011;28144;49.920;18.730;2023-03-12T21:20:47;8.67;;;3.87;;
42514;SDS011;28144;49.920;18.730;2023-03-12T21:23:13;8.35;;;3.78;;
42514;SDS011;28144;49.920;18.730;2023-03-12T21:25:42;9.87;;;3.63;;
42514;SDS011;28144;49.920;18.730;2023-03-12T21:28:09;16.00;;;4.85;;
42514;SDS011;28144;49.920;18.730;2023-03-12T21:30:39;11.37;;;4.60;;
42514;SDS011;28144;49.920;18.730;2023-03-12T21:33:05;11.40;;;4.70;;
42514;SDS011;28144;49.920;18.730;2023-03-12T21:35:32;16.17;;;5.60;;
42514;SDS011;28144;49.920;18.730;2023-03-12T21:37:58;13.02;;;4.68;;
42514;SDS011;28144;49.920;18.730;2023-03-12T21:40:25;14.55;;;4.60;;
42514;SDS011;28144;49.920;18.730;2023-03-12T21:42:51;11.70;;;4.93;;
42514;SDS011;28144;49.920;18.730;2023-03-12T21:49:05;9.27;;;3.80;;
42514;SDS011;28144;49.920;18.730;2023-03-12T21:54:53;5.20;;;2.50;;
42514;SDS011;28144;49.920;18.730;2023-03-12T21:57:23;6.28;;;2.42;;
42514;SDS011;28144;49.920;18.730;2023-03-12T22:02:24;7.37;;;3.20;;
42514;SDS011;28144;49.920;18.730;2023-03-12T22:07:17;5.20;;;2.33;;
42514;SDS011;28144;49.920;18.730;2023-03-12T22:09:43;10.17;;;3.20;;
42514;SDS011;28144;49.920;18.730;2023-03-12T22:12:08;5.17;;;2.50;;
42514;SDS011;28144;49.920;18.730;2023-03-12T22:14:34;6.00;;;2.20;;
42514;SDS011;28144;49.920;18.730;2023-03-12T22:17:00;6.70;;;3.00;;
42514;SDS011;28144;49.920;18.730;2023-03-12T22:19:26;5.97;;;2.67;;
42514;SDS011;28144;49.920;18.730;2023-03-12T22:21:51;4.27;;;2.20;;
42514;SDS011;28144;49.920;18.730;2023-03-12T22:24:17;5.60;;;2.20;;
42514;SDS011;28144;49.920;18.730;2023-03-12T22:26:44;7.10;;;2.60;;
42514;SDS011;28144;49.920;18.730;2023-03-12T22:29:10;6.93;;;2.70;;
42514;SDS011;28144;49.920;18.730;2023-03-12T22:31:36;3.97;;;2.10;;
42514;SDS011;28144;49.920;18.730;2023-03-12T22:34:02;9.73;;;4.33;;
42514;SDS011;28144;49.920;18.730;2023-03-12T22:36:28;10.50;;;4.33;;
42514;SDS011;28144;49.920;18.730;2023-03-12T22:38:53;10.33;;;4.83;;
42514;SDS011;28144;49.920;18.730;2023-03-12T22:41:20;8.37;;;2.80;;
42514;SDS011;28144;49.920;18.730;2023-03-12T22:43:48;6.77;;;2.73;;
42514;SDS011;28144;49.920;18.730;2023-03-12T22:46:16;5.03;;;2.97;;
42514;SDS011;28144;49.920;18.730;2023-03-12T22:48:43;5.30;;;2.50;;
42514;SDS011;28144;49.920;18.730;2023-03-12T22:51:09;6.57;;;2.40;;
42514;SDS011;28144;49.920;18.730;2023-03-12T22:53:35;4.72;;;2.50;;
42514;SDS011;28144;49.920;18.730;2023-03-12T22:56:01;5.77;;;2.70;;
42514;SDS011;28144;49.920;18.730;2023-03-12T22:58:29;4.57;;;2.17;;
42514;SDS011;28144;49.920;18.730;2023-03-12T23:00:59;5.20;;;2.23;;
42514;SDS011;28144;49.920;18.730;2023-03-12T23:03:26;3.93;;;2.57;;
42514;SDS011;28144;49.920;18.730;2023-03-12T23:05:53;5.77;;;2.40;;
42514;SDS011;28144;49.920;18.730;2023-03-12T23:08:19;6.70;;;2.57;;
42514;SDS011;28144;49.920;18.730;2023-03-12T23:10:55;7.23;;;3.47;;
42514;SDS011;28144;49.920;18.730;2023-03-12T23:13:22;9.03;;;2.60;;
42514;SDS011;28144;49.920;18.730;2023-03-12T23:15:48;5.93;;;2.35;;
42514;SDS011;28144;49.920;18.730;2023-03-12T23:18:15;3.90;;;2.13;;
42514;SDS011;28144;49.920;18.730;2023-03-12T23:20:40;4.17;;;1.97;;
42514;SDS011;28144;49.920;18.730;2023-03-12T23:23:06;4.43;;;1.87;;
42514;SDS011;28144;49.920;18.730;2023-03-12T23:25:32;4.03;;;2.17;;
42514;SDS011;28144;49.920;18.730;2023-03-12T23:27:58;5.05;;;2.42;;
42514;SDS011;28144;49.920;18.730;2023-03-12T23:30:24;5.10;;;2.50;;
42514;SDS011;28144;49.920;18.730;2023-03-12T23:32:50;6.73;;;2.27;;
42514;SDS011;28144;49.920;18.730;2023-03-12T23:35:16;5.67;;;2.80;;
42514;SDS011;28144;49.920;18.730;2023-03-12T23:37:42;5.93;;;2.67;;
42514;SDS011;28144;49.920;18.730;2023-03-12T23:40:07;3.57;;;2.37;;
42514;SDS011;28144;49.920;18.730;2023-03-12T23:42:35;4.07;;;2.60;;
42514;SDS011;28144;49.920;18.730;2023-03-12T23:45:01;7.37;;;2.97;;
42514;SDS011;28144;49.920;18.730;2023-03-12T23:47:27;9.27;;;2.55;;
42514;SDS011;28144;49.920;18.730;2023-03-12T23:49:53;4.63;;;2.50;;
42514;SDS011;28144;49.920;18.730;2023-03-12T23:52:18;4.50;;;2.63;;
42514;SDS011;28144;49.920;18.730;2023-03-12T23:54:44;4.10;;;2.60;;
42514;SDS011;28144;49.920;18.730;2023-03-12T23:57:10;4.73;;;2.73;;
